sensor_id;sensor_type;location;lat;lon;timestamp;temperature;humidity
74923;HTU21D;64715;44.760;37.678;2023-04-21T00:00:19;11.17;83.63
74923;HTU21D;64715;44.760;37.678;2023-04-21T00:01:20;11.17;83.43
74923;HTU21D;64715;44.760;37.678;2023-04-21T00:02:22;11.15;83.72
74923;HTU21D;64715;44.760;37.678;2023-04-21T00:03:23;11.16;83.42
74923;HTU21D;64715;44.760;37.678;2023-04-21T00:04:25;11.17;83.36
74923;HTU21D;64715;44.760;37.678;2023-04-21T00:05:26;11.18;83.57
74923;HTU21D;64715;44.760;37.678;2023-04-21T00:06:27;11.15;83.49
74923;HTU21D;64715;44.760;37.678;2023-04-21T00:07:30;11.16;83.66
74923;HTU21D;64715;44.760;37.678;2023-04-21T00:08:32;11.15;83.44
74923;HTU21D;64715;44.760;37.678;2023-04-21T00:09:33;11.17;83.68
74923;HTU21D;64715;44.760;37.678;2023-04-21T00:10:34;11.16;83.78
74923;HTU21D;64715;44.760;37.678;2023-04-21T00:11:36;11.15;83.56
74923;HTU21D;64715;44.760;37.678;2023-04-21T00:12:37;11.17;83.54
74923;HTU21D;64715;44.760;37.678;2023-04-21T00:13:38;11.16;83.53
74923;HTU21D;64715;44.760;37.678;2023-04-21T00:14:39;11.17;83.57
74923;HTU21D;64715;44.760;37.678;2023-04-21T00:15:40;11.17;83.73
74923;HTU21D;64715;44.760;37.678;2023-04-21T00:16:41;11.17;83.65
74923;HTU21D;64715;44.760;37.678;2023-04-21T00:17:42;11.16;83.70
74923;HTU21D;64715;44.760;37.678;2023-04-21T00:18:43;11.18;83.49
74923;HTU21D;64715;44.760;37.678;2023-04-21T00:19:44;11.16;83.74
74923;HTU21D;64715;44.760;37.678;2023-04-21T00:20:47;11.19;83.68
74923;HTU21D;64715;44.760;37.678;2023-04-21T00:21:48;11.18;83.63
74923;HTU21D;64715;44.760;37.678;2023-04-21T00:22:49;11.17;83.48
74923;HTU21D;64715;44.760;37.678;2023-04-21T00:23:52;11.17;83.81
74923;HTU21D;64715;44.760;37.678;2023-04-21T00:24:53;11.17;83.87
74923;HTU21D;64715;44.760;37.678;2023-04-21T00:25:54;11.17;83.77
74923;HTU21D;64715;44.760;37.678;2023-04-21T00:26:55;11.18;83.50
74923;HTU21D;64715;44.760;37.678;2023-04-21T00:27:56;11.19;83.78
74923;HTU21D;64715;44.760;37.678;2023-04-21T00:28:58;11.17;83.71
74923;HTU21D;64715;44.760;37.678;2023-04-21T00:29:59;11.17;83.71
74923;HTU21D;64715;44.760;37.678;2023-04-21T00:31:00;11.17;83.56
74923;HTU21D;64715;44.760;37.678;2023-04-21T00:32:01;11.19;83.94
74923;HTU21D;64715;44.760;37.678;2023-04-21T00:33:06;11.16;83.78
74923;HTU21D;64715;44.760;37.678;2023-04-21T00:34:07;11.17;83.99
74923;HTU21D;64715;44.760;37.678;2023-04-21T00:35:08;11.17;83.94
74923;HTU21D;64715;44.760;37.678;2023-04-21T00:36:09;11.18;83.77
74923;HTU21D;64715;44.760;37.678;2023-04-21T00:37:10;11.17;83.87
74923;HTU21D;64715;44.760;37.678;2023-04-21T00:38:13;11.16;83.97
74923;HTU21D;64715;44.760;37.678;2023-04-21T00:39:15;11.18;83.90
74923;HTU21D;64715;44.760;37.678;2023-04-21T00:40:16;11.16;83.90
74923;HTU21D;64715;44.760;37.678;2023-04-21T00:41:17;11.16;84.09
74923;HTU21D;64715;44.760;37.678;2023-04-21T00:42:20;11.16;84.00
74923;HTU21D;64715;44.760;37.678;2023-04-21T00:43:21;11.17;83.68
74923;HTU21D;64715;44.760;37.678;2023-04-21T00:44:22;11.16;83.68
74923;HTU21D;64715;44.760;37.678;2023-04-21T00:45:23;11.15;84.13
74923;HTU21D;64715;44.760;37.678;2023-04-21T00:46:24;11.15;83.90
74923;HTU21D;64715;44.760;37.678;2023-04-21T00:47:26;11.14;83.88
74923;HTU21D;64715;44.760;37.678;2023-04-21T00:48:27;11.14;83.99
74923;HTU21D;64715;44.760;37.678;2023-04-21T00:49:28;11.12;83.98
74923;HTU21D;64715;44.760;37.678;2023-04-21T00:50:30;11.13;83.97
74923;HTU21D;64715;44.760;37.678;2023-04-21T00:51:33;11.12;83.87
74923;HTU21D;64715;44.760;37.678;2023-04-21T00:52:35;11.13;83.81
74923;HTU21D;64715;44.760;37.678;2023-04-21T00:53:36;11.12;83.87
74923;HTU21D;64715;44.760;37.678;2023-04-21T00:54:38;11.13;83.78
74923;HTU21D;64715;44.760;37.678;2023-04-21T00:55:39;11.14;83.90
74923;HTU21D;64715;44.760;37.678;2023-04-21T00:56:40;11.13;83.76
74923;HTU21D;64715;44.760;37.678;2023-04-21T00:57:42;11.13;83.96
74923;HTU21D;64715;44.760;37.678;2023-04-21T00:58:44;11.12;83.75
74923;HTU21D;64715;44.760;37.678;2023-04-21T00:59:48;11.12;83.61
74923;HTU21D;64715;44.760;37.678;2023-04-21T01:00:49;11.10;83.83
74923;HTU21D;64715;44.760;37.678;2023-04-21T01:01:51;11.11;83.79
74923;HTU21D;64715;44.760;37.678;2023-04-21T01:02:55;11.11;83.61
74923;HTU21D;64715;44.760;37.678;2023-04-21T01:03:59;11.11;84.03
74923;HTU21D;64715;44.760;37.678;2023-04-21T01:05:02;11.10;83.71
74923;HTU21D;64715;44.760;37.678;2023-04-21T01:06:05;11.10;83.81
74923;HTU21D;64715;44.760;37.678;2023-04-21T01:07:06;11.10;83.94
74923;HTU21D;64715;44.760;37.678;2023-04-21T01:08:08;11.09;83.78
74923;HTU21D;64715;44.760;37.678;2023-04-21T01:09:09;11.08;83.85
74923;HTU21D;64715;44.760;37.678;2023-04-21T01:10:13;11.09;83.80
74923;HTU21D;64715;44.760;37.678;2023-04-21T01:11:14;11.10;83.93
74923;HTU21D;64715;44.760;37.678;2023-04-21T01:12:15;11.09;83.84
74923;HTU21D;64715;44.760;37.678;2023-04-21T01:13:19;11.08;83.89
74923;HTU21D;64715;44.760;37.678;2023-04-21T01:14:21;11.09;83.85
74923;HTU21D;64715;44.760;37.678;2023-04-21T01:15:22;11.11;83.84
74923;HTU21D;64715;44.760;37.678;2023-04-21T01:16:23;11.10;83.95
74923;HTU21D;64715;44.760;37.678;2023-04-21T01:17:27;11.09;83.87
74923;HTU21D;64715;44.760;37.678;2023-04-21T01:18:30;11.09;83.81
74923;HTU21D;64715;44.760;37.678;2023-04-21T01:19:35;11.10;83.78
74923;HTU21D;64715;44.760;37.678;2023-04-21T01:20:40;11.09;83.90
74923;HTU21D;64715;44.760;37.678;2023-04-21T01:21:41;11.11;83.98
74923;HTU21D;64715;44.760;37.678;2023-04-21T01:22:42;11.12;83.82
74923;HTU21D;64715;44.760;37.678;2023-04-21T01:23:45;11.12;83.83
74923;HTU21D;64715;44.760;37.678;2023-04-21T01:24:47;11.11;83.93
74923;HTU21D;64715;44.760;37.678;2023-04-21T01:25:49;11.14;83.95
74923;HTU21D;64715;44.760;37.678;2023-04-21T01:26:50;11.12;83.75
74923;HTU21D;64715;44.760;37.678;2023-04-21T01:27:52;11.14;83.99
74923;HTU21D;64715;44.760;37.678;2023-04-21T01:28:56;11.14;83.95
74923;HTU21D;64715;44.760;37.678;2023-04-21T01:29:57;11.15;83.94
74923;HTU21D;64715;44.760;37.678;2023-04-21T01:30:58;11.17;84.00
74923;HTU21D;64715;44.760;37.678;2023-04-21T01:32:06;11.18;84.16
74923;HTU21D;64715;44.760;37.678;2023-04-21T01:33:08;11.18;84.10
74923;HTU21D;64715;44.760;37.678;2023-04-21T01:34:09;11.17;83.87
74923;HTU21D;64715;44.760;37.678;2023-04-21T01:35:11;11.19;83.74
74923;HTU21D;64715;44.760;37.678;2023-04-21T01:36:12;11.16;83.82
74923;HTU21D;64715;44.760;37.678;2023-04-21T01:37:17;11.17;83.78
74923;HTU21D;64715;44.760;37.678;2023-04-21T01:38:18;11.19;83.97
74923;HTU21D;64715;44.760;37.678;2023-04-21T01:39:19;11.17;84.05
74923;HTU21D;64715;44.760;37.678;2023-04-21T01:40:20;11.19;84.19
74923;HTU21D;64715;44.760;37.678;2023-04-21T01:41:21;11.18;84.00
74923;HTU21D;64715;44.760;37.678;2023-04-21T01:42:24;11.20;84.00
74923;HTU21D;64715;44.760;37.678;2023-04-21T01:43:25;11.20;84.00
74923;HTU21D;64715;44.760;37.678;2023-04-21T01:44:26;11.20;83.81
74923;HTU21D;64715;44.760;37.678;2023-04-21T01:45:27;11.19;83.99
74923;HTU21D;64715;44.760;37.678;2023-04-21T01:46:28;11.22;84.13
74923;HTU21D;64715;44.760;37.678;2023-04-21T01:47:30;11.22;84.00
74923;HTU21D;64715;44.760;37.678;2023-04-21T01:48:31;11.20;84.00
74923;HTU21D;64715;44.760;37.678;2023-04-21T01:49:33;11.19;84.08
74923;HTU21D;64715;44.760;37.678;2023-04-21T01:50:34;11.19;83.95
74923;HTU21D;64715;44.760;37.678;2023-04-21T01:51:35;11.20;84.16
74923;HTU21D;64715;44.760;37.678;2023-04-21T01:52:36;11.19;84.00
74923;HTU21D;64715;44.760;37.678;2023-04-21T01:53:37;11.22;83.97
74923;HTU21D;64715;44.760;37.678;2023-04-21T01:54:39;11.20;83.96
74923;HTU21D;64715;44.760;37.678;2023-04-21T01:55:41;11.20;84.31
74923;HTU21D;64715;44.760;37.678;2023-04-21T01:56:43;11.20;84.12
74923;HTU21D;64715;44.760;37.678;2023-04-21T01:57:45;11.19;84.27
74923;HTU21D;64715;44.760;37.678;2023-04-21T01:58:46;11.19;84.32
74923;HTU21D;64715;44.760;37.678;2023-04-21T01:59:47;11.20;84.23
74923;HTU21D;64715;44.760;37.678;2023-04-21T02:00:50;11.23;84.32
74923;HTU21D;64715;44.760;37.678;2023-04-21T02:01:51;11.20;84.35
74923;HTU21D;64715;44.760;37.678;2023-04-21T02:02:52;11.22;84.38
74923;HTU21D;64715;44.760;37.678;2023-04-21T02:03:53;11.24;84.45
74923;HTU21D;64715;44.760;37.678;2023-04-21T02:04:54;11.23;84.30
74923;HTU21D;64715;44.760;37.678;2023-04-21T02:05:55;11.22;84.52
74923;HTU21D;64715;44.760;37.678;2023-04-21T02:06:56;11.22;84.33
74923;HTU21D;64715;44.760;37.678;2023-04-21T02:07:57;11.19;84.48
74923;HTU21D;64715;44.760;37.678;2023-04-21T02:08:58;11.18;84.66
74923;HTU21D;64715;44.760;37.678;2023-04-21T02:10:01;11.18;84.45
74923;HTU21D;64715;44.760;37.678;2023-04-21T02:11:02;11.15;84.54
74923;HTU21D;64715;44.760;37.678;2023-04-21T02:12:04;11.15;84.71
74923;HTU21D;64715;44.760;37.678;2023-04-21T02:13:05;11.12;84.81
74923;HTU21D;64715;44.760;37.678;2023-04-21T02:14:06;11.13;84.74
74923;HTU21D;64715;44.760;37.678;2023-04-21T02:15:08;11.11;84.63
74923;HTU21D;64715;44.760;37.678;2023-04-21T02:16:09;11.11;84.71
74923;HTU21D;64715;44.760;37.678;2023-04-21T02:17:10;11.10;84.78
74923;HTU21D;64715;44.760;37.678;2023-04-21T02:18:10;11.08;84.79
74923;HTU21D;64715;44.760;37.678;2023-04-21T02:19:13;11.08;84.83
74923;HTU21D;64715;44.760;37.678;2023-04-21T02:20:14;11.07;85.21
74923;HTU21D;64715;44.760;37.678;2023-04-21T02:21:14;11.04;84.87
74923;HTU21D;64715;44.760;37.678;2023-04-21T02:22:16;11.05;85.09
74923;HTU21D;64715;44.760;37.678;2023-04-21T02:23:16;11.05;84.91
74923;HTU21D;64715;44.760;37.678;2023-04-21T02:24:17;11.04;85.00
74923;HTU21D;64715;44.760;37.678;2023-04-21T02:25:19;11.04;85.23
74923;HTU21D;64715;44.760;37.678;2023-04-21T02:26:20;11.05;85.00
74923;HTU21D;64715;44.760;37.678;2023-04-21T02:27:21;11.03;85.50
74923;HTU21D;64715;44.760;37.678;2023-04-21T02:28:23;11.04;85.42
74923;HTU21D;64715;44.760;37.678;2023-04-21T02:29:24;11.04;85.40
74923;HTU21D;64715;44.760;37.678;2023-04-21T02:30:25;11.04;85.32
74923;HTU21D;64715;44.760;37.678;2023-04-21T02:31:26;11.03;85.67
74923;HTU21D;64715;44.760;37.678;2023-04-21T02:32:27;11.05;85.52
74923;HTU21D;64715;44.760;37.678;2023-04-21T02:33:29;11.04;85.57
74923;HTU21D;64715;44.760;37.678;2023-04-21T02:34:30;11.03;85.76
74923;HTU21D;64715;44.760;37.678;2023-04-21T02:35:31;11.04;85.34
74923;HTU21D;64715;44.760;37.678;2023-04-21T02:36:33;11.05;85.71
74923;HTU21D;64715;44.760;37.678;2023-04-21T02:37:35;11.03;85.42
74923;HTU21D;64715;44.760;37.678;2023-04-21T02:38:36;11.04;85.71
74923;HTU21D;64715;44.760;37.678;2023-04-21T02:39:37;11.03;85.87
74923;HTU21D;64715;44.760;37.678;2023-04-21T02:40:39;11.02;85.87
74923;HTU21D;64715;44.760;37.678;2023-04-21T02:41:40;11.04;85.90
74923;HTU21D;64715;44.760;37.678;2023-04-21T02:42:41;11.07;85.96
74923;HTU21D;64715;44.760;37.678;2023-04-21T02:43:43;11.05;85.92
74923;HTU21D;64715;44.760;37.678;2023-04-21T02:44:44;11.03;86.12
74923;HTU21D;64715;44.760;37.678;2023-04-21T02:45:45;11.04;86.03
74923;HTU21D;64715;44.760;37.678;2023-04-21T02:46:46;11.04;86.15
74923;HTU21D;64715;44.760;37.678;2023-04-21T02:47:48;11.04;86.35
74923;HTU21D;64715;44.760;37.678;2023-04-21T02:48:49;11.05;86.28
74923;HTU21D;64715;44.760;37.678;2023-04-21T02:49:50;11.04;86.32
74923;HTU21D;64715;44.760;37.678;2023-04-21T02:50:51;11.04;86.05
74923;HTU21D;64715;44.760;37.678;2023-04-21T02:51:53;11.05;86.02
74923;HTU21D;64715;44.760;37.678;2023-04-21T02:52:54;11.07;86.35
74923;HTU21D;64715;44.760;37.678;2023-04-21T02:53:55;11.07;86.16
74923;HTU21D;64715;44.760;37.678;2023-04-21T02:54:56;11.05;86.33
74923;HTU21D;64715;44.760;37.678;2023-04-21T02:55:59;11.04;86.45
74923;HTU21D;64715;44.760;37.678;2023-04-21T02:57:04;11.04;86.38
74923;HTU21D;64715;44.760;37.678;2023-04-21T02:58:07;11.05;86.54
74923;HTU21D;64715;44.760;37.678;2023-04-21T02:59:08;11.04;86.51
74923;HTU21D;64715;44.760;37.678;2023-04-21T03:00:11;11.05;86.51
74923;HTU21D;64715;44.760;37.678;2023-04-21T03:01:13;11.05;86.78
74923;HTU21D;64715;44.760;37.678;2023-04-21T03:02:14;11.04;86.53
74923;HTU21D;64715;44.760;37.678;2023-04-21T03:03:15;11.03;86.51
74923;HTU21D;64715;44.760;37.678;2023-04-21T03:04:16;11.05;86.90
74923;HTU21D;64715;44.760;37.678;2023-04-21T03:05:19;11.04;86.88
74923;HTU21D;64715;44.760;37.678;2023-04-21T03:06:20;11.05;86.68
74923;HTU21D;64715;44.760;37.678;2023-04-21T03:07:21;11.04;86.96
74923;HTU21D;64715;44.760;37.678;2023-04-21T03:08:22;11.07;86.85
74923;HTU21D;64715;44.760;37.678;2023-04-21T03:09:23;11.08;86.79
74923;HTU21D;64715;44.760;37.678;2023-04-21T03:10:24;11.07;87.15
74923;HTU21D;64715;44.760;37.678;2023-04-21T03:11:25;11.07;86.91
74923;HTU21D;64715;44.760;37.678;2023-04-21T03:12:27;11.09;87.03
74923;HTU21D;64715;44.760;37.678;2023-04-21T03:13:28;11.08;87.00
74923;HTU21D;64715;44.760;37.678;2023-04-21T03:14:29;11.09;87.24
74923;HTU21D;64715;44.760;37.678;2023-04-21T03:15:30;11.08;86.73
74923;HTU21D;64715;44.760;37.678;2023-04-21T03:16:31;11.11;87.22
74923;HTU21D;64715;44.760;37.678;2023-04-21T03:17:34;11.11;86.96
74923;HTU21D;64715;44.760;37.678;2023-04-21T03:18:35;11.09;87.10
74923;HTU21D;64715;44.760;37.678;2023-04-21T03:19:36;11.09;87.17
74923;HTU21D;64715;44.760;37.678;2023-04-21T03:20:37;11.10;86.99
74923;HTU21D;64715;44.760;37.678;2023-04-21T03:21:38;11.09;87.23
74923;HTU21D;64715;44.760;37.678;2023-04-21T03:22:39;11.11;87.15
74923;HTU21D;64715;44.760;37.678;2023-04-21T03:23:40;11.09;87.19
74923;HTU21D;64715;44.760;37.678;2023-04-21T03:24:41;11.11;87.19
74923;HTU21D;64715;44.760;37.678;2023-04-21T03:25:42;11.12;87.03
74923;HTU21D;64715;44.760;37.678;2023-04-21T03:26:43;11.11;87.40
74923;HTU21D;64715;44.760;37.678;2023-04-21T03:27:44;11.12;87.29
74923;HTU21D;64715;44.760;37.678;2023-04-21T03:28:46;11.13;87.20
74923;HTU21D;64715;44.760;37.678;2023-04-21T03:29:47;11.14;86.97
74923;HTU21D;64715;44.760;37.678;2023-04-21T03:30:48;11.15;87.23
74923;HTU21D;64715;44.760;37.678;2023-04-21T03:31:49;11.13;87.40
74923;HTU21D;64715;44.760;37.678;2023-04-21T03:32:50;11.16;87.47
74923;HTU21D;64715;44.760;37.678;2023-04-21T03:33:51;11.15;87.44
74923;HTU21D;64715;44.760;37.678;2023-04-21T03:34:52;11.18;87.28
74923;HTU21D;64715;44.760;37.678;2023-04-21T03:35:53;11.17;87.31
74923;HTU21D;64715;44.760;37.678;2023-04-21T03:36:54;11.17;87.19
74923;HTU21D;64715;44.760;37.678;2023-04-21T03:37:55;11.16;87.51
74923;HTU21D;64715;44.760;37.678;2023-04-21T03:38:56;11.17;87.50
74923;HTU21D;64715;44.760;37.678;2023-04-21T03:39:58;11.18;87.45
74923;HTU21D;64715;44.760;37.678;2023-04-21T03:40:59;11.19;87.61
74923;HTU21D;64715;44.760;37.678;2023-04-21T03:42:00;11.19;87.64
74923;HTU21D;64715;44.760;37.678;2023-04-21T03:43:03;11.18;87.57
74923;HTU21D;64715;44.760;37.678;2023-04-21T03:44:04;11.17;87.72
74923;HTU21D;64715;44.760;37.678;2023-04-21T03:45:08;11.17;87.58
74923;HTU21D;64715;44.760;37.678;2023-04-21T03:46:18;11.18;87.51
74923;HTU21D;64715;44.760;37.678;2023-04-21T03:47:20;11.19;87.59
74923;HTU21D;64715;44.760;37.678;2023-04-21T03:48:21;11.20;87.45
74923;HTU21D;64715;44.760;37.678;2023-04-21T03:49:22;11.20;87.46
74923;HTU21D;64715;44.760;37.678;2023-04-21T03:50:23;11.22;87.60
74923;HTU21D;64715;44.760;37.678;2023-04-21T03:51:26;11.20;87.64
74923;HTU21D;64715;44.760;37.678;2023-04-21T03:52:27;11.22;87.72
74923;HTU21D;64715;44.760;37.678;2023-04-21T03:53:28;11.22;87.73
74923;HTU21D;64715;44.760;37.678;2023-04-21T03:54:30;11.20;87.56
74923;HTU21D;64715;44.760;37.678;2023-04-21T03:55:31;11.22;87.75
74923;HTU21D;64715;44.760;37.678;2023-04-21T03:56:32;11.23;87.70
74923;HTU21D;64715;44.760;37.678;2023-04-21T03:57:33;11.24;87.95
74923;HTU21D;64715;44.760;37.678;2023-04-21T03:58:34;11.23;87.66
74923;HTU21D;64715;44.760;37.678;2023-04-21T03:59:35;11.24;87.57
74923;HTU21D;64715;44.760;37.678;2023-04-21T04:00:36;11.25;87.80
74923;HTU21D;64715;44.760;37.678;2023-04-21T04:01:37;11.27;87.68
74923;HTU21D;64715;44.760;37.678;2023-04-21T04:02:39;11.27;87.50
74923;HTU21D;64715;44.760;37.678;2023-04-21T04:03:40;11.27;87.83
74923;HTU21D;64715;44.760;37.678;2023-04-21T04:04:42;11.26;87.43
74923;HTU21D;64715;44.760;37.678;2023-04-21T04:05:43;11.27;87.67
74923;HTU21D;64715;44.760;37.678;2023-04-21T04:06:44;11.28;87.69
74923;HTU21D;64715;44.760;37.678;2023-04-21T04:07:45;11.27;87.77
74923;HTU21D;64715;44.760;37.678;2023-04-21T04:08:46;11.29;87.52
74923;HTU21D;64715;44.760;37.678;2023-04-21T04:09:48;11.28;87.72
74923;HTU21D;64715;44.760;37.678;2023-04-21T04:10:48;11.28;87.61
74923;HTU21D;64715;44.760;37.678;2023-04-21T04:11:50;11.29;87.53
74923;HTU21D;64715;44.760;37.678;2023-04-21T04:12:51;11.29;87.70
74923;HTU21D;64715;44.760;37.678;2023-04-21T04:13:52;11.30;87.80
74923;HTU21D;64715;44.760;37.678;2023-04-21T04:14:53;11.29;87.82
74923;HTU21D;64715;44.760;37.678;2023-04-21T04:15:53;11.29;87.82
74923;HTU21D;64715;44.760;37.678;2023-04-21T04:16:54;11.29;87.79
74923;HTU21D;64715;44.760;37.678;2023-04-21T04:17:55;11.29;87.73
74923;HTU21D;64715;44.760;37.678;2023-04-21T04:18:56;11.30;87.73
74923;HTU21D;64715;44.760;37.678;2023-04-21T04:19:57;11.29;87.63
74923;HTU21D;64715;44.760;37.678;2023-04-21T04:21:04;11.28;87.57
74923;HTU21D;64715;44.760;37.678;2023-04-21T04:22:06;11.29;87.58
74923;HTU21D;64715;44.760;37.678;2023-04-21T04:23:07;11.25;87.49
74923;HTU21D;64715;44.760;37.678;2023-04-21T04:24:10;11.26;87.55
74923;HTU21D;64715;44.760;37.678;2023-04-21T04:25:11;11.27;87.44
74923;HTU21D;64715;44.760;37.678;2023-04-21T04:26:14;11.25;87.23
74923;HTU21D;64715;44.760;37.678;2023-04-21T04:27:15;11.24;87.57
74923;HTU21D;64715;44.760;37.678;2023-04-21T04:28:17;11.24;87.31
74923;HTU21D;64715;44.760;37.678;2023-04-21T04:29:18;11.24;87.23
74923;HTU21D;64715;44.760;37.678;2023-04-21T04:30:19;11.22;87.38
74923;HTU21D;64715;44.760;37.678;2023-04-21T04:31:21;11.22;87.23
74923;HTU21D;64715;44.760;37.678;2023-04-21T04:32:24;11.23;87.57
74923;HTU21D;64715;44.760;37.678;2023-04-21T04:33:28;11.22;87.37
74923;HTU21D;64715;44.760;37.678;2023-04-21T04:34:29;11.22;87.54
74923;HTU21D;64715;44.760;37.678;2023-04-21T04:35:30;11.24;87.21
74923;HTU21D;64715;44.760;37.678;2023-04-21T04:36:31;11.25;87.42
74923;HTU21D;64715;44.760;37.678;2023-04-21T04:37:35;11.25;87.31
74923;HTU21D;64715;44.760;37.678;2023-04-21T04:38:37;11.25;87.25
74923;HTU21D;64715;44.760;37.678;2023-04-21T04:39:38;11.28;87.44
74923;HTU21D;64715;44.760;37.678;2023-04-21T04:40:39;11.30;87.57
74923;HTU21D;64715;44.760;37.678;2023-04-21T04:41:40;11.29;87.53
74923;HTU21D;64715;44.760;37.678;2023-04-21T04:42:41;11.32;87.67
74923;HTU21D;64715;44.760;37.678;2023-04-21T04:43:44;11.32;87.46
74923;HTU21D;64715;44.760;37.678;2023-04-21T04:44:45;11.36;87.56
74923;HTU21D;64715;44.760;37.678;2023-04-21T04:45:46;11.38;87.71
74923;HTU21D;64715;44.760;37.678;2023-04-21T04:46:48;11.39;87.42
74923;HTU21D;64715;44.760;37.678;2023-04-21T04:47:49;11.41;87.74
74923;HTU21D;64715;44.760;37.678;2023-04-21T04:49:05;11.42;87.82
74923;HTU21D;64715;44.760;37.678;2023-04-21T04:50:12;11.45;87.73
74923;HTU21D;64715;44.760;37.678;2023-04-21T04:51:14;11.49;87.73
74923;HTU21D;64715;44.760;37.678;2023-04-21T04:52:15;11.49;87.84
74923;HTU21D;64715;44.760;37.678;2023-04-21T04:53:16;11.53;87.73
74923;HTU21D;64715;44.760;37.678;2023-04-21T04:54:17;11.56;87.70
74923;HTU21D;64715;44.760;37.678;2023-04-21T04:55:18;11.57;87.67
74923;HTU21D;64715;44.760;37.678;2023-04-21T04:56:19;11.61;88.02
74923;HTU21D;64715;44.760;37.678;2023-04-21T04:57:20;11.62;87.76
74923;HTU21D;64715;44.760;37.678;2023-04-21T04:58:21;11.69;87.53
74923;HTU21D;64715;44.760;37.678;2023-04-21T04:59:22;11.73;88.25
74923;HTU21D;64715;44.760;37.678;2023-04-21T05:00:23;11.77;87.89
74923;HTU21D;64715;44.760;37.678;2023-04-21T05:01:24;11.84;88.05
74923;HTU21D;64715;44.760;37.678;2023-04-21T05:02:29;11.89;87.81
74923;HTU21D;64715;44.760;37.678;2023-04-21T05:03:31;11.96;87.92
74923;HTU21D;64715;44.760;37.678;2023-04-21T05:04:33;11.98;87.99
74923;HTU21D;64715;44.760;37.678;2023-04-21T05:05:34;12.06;87.72
74923;HTU21D;64715;44.760;37.678;2023-04-21T05:06:35;12.11;87.95
74923;HTU21D;64715;44.760;37.678;2023-04-21T05:07:36;12.15;88.01
74923;HTU21D;64715;44.760;37.678;2023-04-21T05:08:37;12.22;87.99
74923;HTU21D;64715;44.760;37.678;2023-04-21T05:09:39;12.32;87.87
74923;HTU21D;64715;44.760;37.678;2023-04-21T05:10:40;12.38;87.75
74923;HTU21D;64715;44.760;37.678;2023-04-21T05:11:41;12.47;87.86
74923;HTU21D;64715;44.760;37.678;2023-04-21T05:12:42;12.53;87.70
74923;HTU21D;64715;44.760;37.678;2023-04-21T05:13:43;12.63;87.80
74923;HTU21D;64715;44.760;37.678;2023-04-21T05:14:44;12.72;87.44
74923;HTU21D;64715;44.760;37.678;2023-04-21T05:15:45;12.84;87.86
74923;HTU21D;64715;44.760;37.678;2023-04-21T05:16:46;12.97;87.55
74923;HTU21D;64715;44.760;37.678;2023-04-21T05:17:48;13.09;86.98
74923;HTU21D;64715;44.760;37.678;2023-04-21T05:18:48;13.20;87.13
74923;HTU21D;64715;44.760;37.678;2023-04-21T05:19:56;13.35;86.94
74923;HTU21D;64715;44.760;37.678;2023-04-21T05:20:57;13.62;87.78
74923;HTU21D;64715;44.760;37.678;2023-04-21T05:21:58;13.95;86.87
74923;HTU21D;64715;44.760;37.678;2023-04-21T05:23:02;14.15;85.99
74923;HTU21D;64715;44.760;37.678;2023-04-21T05:24:03;14.29;85.27
74923;HTU21D;64715;44.760;37.678;2023-04-21T05:25:06;14.42;84.64
74923;HTU21D;64715;44.760;37.678;2023-04-21T05:26:07;14.56;84.66
74923;HTU21D;64715;44.760;37.678;2023-04-21T05:27:07;14.69;83.78
74923;HTU21D;64715;44.760;37.678;2023-04-21T05:28:08;14.77;83.40
74923;HTU21D;64715;44.760;37.678;2023-04-21T05:29:09;14.79;82.58
74923;HTU21D;64715;44.760;37.678;2023-04-21T05:30:11;14.78;81.97
74923;HTU21D;64715;44.760;37.678;2023-04-21T05:31:12;14.74;81.68
74923;HTU21D;64715;44.760;37.678;2023-04-21T05:32:13;14.75;81.91
74923;HTU21D;64715;44.760;37.678;2023-04-21T05:33:17;14.88;82.33
74923;HTU21D;64715;44.760;37.678;2023-04-21T05:34:19;15.08;82.47
74923;HTU21D;64715;44.760;37.678;2023-04-21T05:35:20;15.29;82.04
74923;HTU21D;64715;44.760;37.678;2023-04-21T05:36:21;15.45;81.14
74923;HTU21D;64715;44.760;37.678;2023-04-21T05:37:25;15.61;80.42
74923;HTU21D;64715;44.760;37.678;2023-04-21T05:38:25;15.78;80.33
74923;HTU21D;64715;44.760;37.678;2023-04-21T05:39:27;15.99;80.10
74923;HTU21D;64715;44.760;37.678;2023-04-21T05:40:28;16.22;80.05
74923;HTU21D;64715;44.760;37.678;2023-04-21T05:41:29;16.49;79.23
74923;HTU21D;64715;44.760;37.678;2023-04-21T05:42:30;16.62;77.92
74923;HTU21D;64715;44.760;37.678;2023-04-21T05:43:31;16.64;76.82
74923;HTU21D;64715;44.760;37.678;2023-04-21T05:44:35;16.62;76.44
74923;HTU21D;64715;44.760;37.678;2023-04-21T05:45:39;16.56;75.76
74923;HTU21D;64715;44.760;37.678;2023-04-21T05:46:40;16.45;75.54
74923;HTU21D;64715;44.760;37.678;2023-04-21T05:47:41;16.35;75.25
74923;HTU21D;64715;44.760;37.678;2023-04-21T05:48:42;16.25;74.96
74923;HTU21D;64715;44.760;37.678;2023-04-21T05:49:45;16.13;74.70
74923;HTU21D;64715;44.760;37.678;2023-04-21T05:50:49;16.01;74.84
74923;HTU21D;64715;44.760;37.678;2023-04-21T05:51:50;15.91;75.05
74923;HTU21D;64715;44.760;37.678;2023-04-21T05:52:51;15.82;75.05
74923;HTU21D;64715;44.760;37.678;2023-04-21T05:53:52;15.73;74.83
74923;HTU21D;64715;44.760;37.678;2023-04-21T05:54:53;15.60;74.60
74923;HTU21D;64715;44.760;37.678;2023-04-21T05:55:54;15.53;74.67
74923;HTU21D;64715;44.760;37.678;2023-04-21T05:56:55;15.46;74.80
74923;HTU21D;64715;44.760;37.678;2023-04-21T05:57:56;15.39;74.73
74923;HTU21D;64715;44.760;37.678;2023-04-21T05:58:57;15.30;74.95
74923;HTU21D;64715;44.760;37.678;2023-04-21T05:59:58;15.24;75.12
74923;HTU21D;64715;44.760;37.678;2023-04-21T06:00:59;15.17;75.00
74923;HTU21D;64715;44.760;37.678;2023-04-21T06:02:01;15.11;75.30
74923;HTU21D;64715;44.760;37.678;2023-04-21T06:03:03;15.06;75.18
74923;HTU21D;64715;44.760;37.678;2023-04-21T06:04:05;14.97;75.59
74923;HTU21D;64715;44.760;37.678;2023-04-21T06:05:06;14.88;75.51
74923;HTU21D;64715;44.760;37.678;2023-04-21T06:06:07;14.79;75.45
74923;HTU21D;64715;44.760;37.678;2023-04-21T06:07:10;14.71;75.89
74923;HTU21D;64715;44.760;37.678;2023-04-21T06:08:13;14.65;75.76
74923;HTU21D;64715;44.760;37.678;2023-04-21T06:09:14;14.58;75.95
74923;HTU21D;64715;44.760;37.678;2023-04-21T06:10:16;14.50;76.18
74923;HTU21D;64715;44.760;37.678;2023-04-21T06:11:17;14.43;76.35
74923;HTU21D;64715;44.760;37.678;2023-04-21T06:12:18;14.38;76.44
74923;HTU21D;64715;44.760;37.678;2023-04-21T06:13:19;14.37;76.70
74923;HTU21D;64715;44.760;37.678;2023-04-21T06:14:21;14.34;76.82
74923;HTU21D;64715;44.760;37.678;2023-04-21T06:15:22;14.28;76.76
74923;HTU21D;64715;44.760;37.678;2023-04-21T06:16:23;14.27;76.66
74923;HTU21D;64715;44.760;37.678;2023-04-21T06:17:24;14.24;77.13